sensor_id;sensor_type;location;lat;lon;timestamp;pressure;altitude;pressure_sealevel;temperature;humidity
74466;BME280;62916;50.044;15.938;2023-06-22T00:01:37;99361.34;;;27.61;48.72
74466;BME280;62916;50.044;15.938;2023-06-22T00:04:08;99362.69;;;27.57;48.62
74466;BME280;62916;50.044;15.938;2023-06-22T00:06:39;99368.42;;;27.55;48.66
74466;BME280;62916;50.044;15.938;2023-06-22T00:09:10;99365.30;;;27.52;48.59
74466;BME280;62916;50.044;15.938;2023-06-22T00:11:41;99370.38;;;27.55;48.60
74466;BME280;62916;50.044;15.938;2023-06-22T00:14:12;99369.90;;;27.55;48.51
74466;BME280;62916;50.044;15.938;2023-06-22T00:16:43;99370.13;;;27.58;48.55
74466;BME280;62916;50.044;15.938;2023-06-22T00:19:18;99371.54;;;27.59;48.58
74466;BME280;62916;50.044;15.938;2023-06-22T00:21:51;99380.05;;;27.60;48.58
74466;BME280;62916;50.044;15.938;2023-06-22T00:24:24;99378.80;;;27.62;48.44
74466;BME280;62916;50.044;15.938;2023-06-22T00:26:54;99376.59;;;27.62;48.48
74466;BME280;62916;50.044;15.938;2023-06-22T00:29:25;99374.55;;;27.61;48.47
74466;BME280;62916;50.044;15.938;2023-06-22T00:31:56;99378.59;;;27.60;48.40
74466;BME280;62916;50.044;15.938;2023-06-22T00:34:27;99378.49;;;27.60;48.44
74466;BME280;62916;50.044;15.938;2023-06-22T00:36:58;99380.37;;;27.60;48.39
74466;BME280;62916;50.044;15.938;2023-06-22T00:39:29;99385.88;;;27.59;48.45
74466;BME280;62916;50.044;15.938;2023-06-22T00:42:02;99388.55;;;27.58;48.30
74466;BME280;62916;50.044;15.938;2023-06-22T00:44:33;99390.15;;;27.57;48.35
74466;BME280;62916;50.044;15.938;2023-06-22T00:47:04;99395.27;;;27.57;48.39
74466;BME280;62916;50.044;15.938;2023-06-22T00:49:36;99399.14;;;27.56;48.42
74466;BME280;62916;50.044;15.938;2023-06-22T00:52:08;99403.23;;;27.54;48.33
74466;BME280;62916;50.044;15.938;2023-06-22T00:54:43;99403.92;;;27.54;48.37
74466;BME280;62916;50.044;15.938;2023-06-22T00:57:14;99411.54;;;27.53;48.11
74466;BME280;62916;50.044;15.938;2023-06-22T00:59:47;99415.39;;;27.51;48.23
74466;BME280;62916;50.044;15.938;2023-06-22T01:02:18;99410.13;;;27.49;48.13
74466;BME280;62916;50.044;15.938;2023-06-22T01:04:49;99404.61;;;27.46;48.22
74466;BME280;62916;50.044;15.938;2023-06-22T01:07:25;99398.44;;;27.44;48.23
74466;BME280;62916;50.044;15.938;2023-06-22T01:10:06;99396.73;;;27.42;48.24
74466;BME280;62916;50.044;15.938;2023-06-22T01:12:42;99391.86;;;27.40;48.17
74466;BME280;62916;50.044;15.938;2023-06-22T01:15:18;99391.31;;;27.37;48.27
74466;BME280;62916;50.044;15.938;2023-06-22T01:17:54;99396.07;;;27.34;48.45
74466;BME280;62916;50.044;15.938;2023-06-22T01:20:28;99399.20;;;27.35;48.41
74466;BME280;62916;50.044;15.938;2023-06-22T01:23:09;99388.73;;;27.33;48.48
74466;BME280;62916;50.044;15.938;2023-06-22T01:25:47;99384.82;;;27.31;48.58
74466;BME280;62916;50.044;15.938;2023-06-22T01:28:33;99384.10;;;27.28;48.72
74466;BME280;62916;50.044;15.938;2023-06-22T01:31:07;99388.39;;;27.28;48.59
74466;BME280;62916;50.044;15.938;2023-06-22T01:33:40;99395.09;;;27.28;48.71
74466;BME280;62916;50.044;15.938;2023-06-22T01:36:12;99391.38;;;27.27;48.60
74466;BME280;62916;50.044;15.938;2023-06-22T01:38:44;99382.21;;;27.25;48.62
74466;BME280;62916;50.044;15.938;2023-06-22T01:41:16;99386.05;;;27.23;48.66
74466;BME280;62916;50.044;15.938;2023-06-22T01:43:48;99384.17;;;27.21;48.69
74466;BME280;62916;50.044;15.938;2023-06-22T01:46:19;99380.60;;;27.18;48.82
74466;BME280;62916;50.044;15.938;2023-06-22T01:48:52;99377.55;;;27.17;48.69
74466;BME280;62916;50.044;15.938;2023-06-22T01:51:23;99377.73;;;27.14;48.52
74466;BME280;62916;50.044;15.938;2023-06-22T01:53:54;99382.04;;;27.12;48.41
74466;BME280;62916;50.044;15.938;2023-06-22T01:56:27;99382.77;;;27.09;48.68
74466;BME280;62916;50.044;15.938;2023-06-22T01:59:03;99378.45;;;27.09;48.63
74466;BME280;62916;50.044;15.938;2023-06-22T02:01:42;99366.12;;;27.08;48.74
74466;BME280;62916;50.044;15.938;2023-06-22T02:04:19;99364.94;;;27.06;48.57
74466;BME280;62916;50.044;15.938;2023-06-22T02:06:56;99362.27;;;27.02;48.69
74466;BME280;62916;50.044;15.938;2023-06-22T02:09:31;99360.73;;;26.99;48.31
74466;BME280;62916;50.044;15.938;2023-06-22T02:12:05;99361.25;;;26.98;48.37
74466;BME280;62916;50.044;15.938;2023-06-22T02:14:37;99353.31;;;26.96;48.41
74466;BME280;62916;50.044;15.938;2023-06-22T02:17:09;99351.16;;;26.95;48.32
74466;BME280;62916;50.044;15.938;2023-06-22T02:19:42;99356.30;;;26.93;48.30
74466;BME280;62916;50.044;15.938;2023-06-22T02:22:13;99355.73;;;26.91;48.15
74466;BME280;62916;50.044;15.938;2023-06-22T02:24:44;99353.16;;;26.90;48.18
74466;BME280;62916;50.044;15.938;2023-06-22T02:27:18;99352.16;;;26.90;48.49
74466;BME280;62916;50.044;15.938;2023-06-22T02:29:48;99354.84;;;26.86;48.38
74466;BME280;62916;50.044;15.938;2023-06-22T02:32:19;99352.20;;;26.83;48.55
74466;BME280;62916;50.044;15.938;2023-06-22T02:34:50;99349.49;;;26.80;48.38
74466;BME280;62916;50.044;15.938;2023-06-22T02:37:21;99350.30;;;26.77;48.62
74466;BME280;62916;50.044;15.938;2023-06-22T02:39:55;99352.75;;;26.77;48.49
74466;BME280;62916;50.044;15.938;2023-06-22T02:42:25;99351.28;;;26.77;48.44
74466;BME280;62916;50.044;15.938;2023-06-22T02:44:57;99348.09;;;26.76;48.42
74466;BME280;62916;50.044;15.938;2023-06-22T02:47:29;99345.33;;;26.76;48.37
74466;BME280;62916;50.044;15.938;2023-06-22T02:49:59;99352.84;;;26.74;48.63
74466;BME280;62916;50.044;15.938;2023-06-22T02:52:30;99349.89;;;26.69;48.52
74466;BME280;62916;50.044;15.938;2023-06-22T02:55:02;99355.91;;;26.69;48.65
74466;BME280;62916;50.044;15.938;2023-06-22T02:57:32;99354.42;;;26.69;48.75
74466;BME280;62916;50.044;15.938;2023-06-22T03:00:06;99353.64;;;26.64;48.50
74466;BME280;62916;50.044;15.938;2023-06-22T03:02:47;99361.27;;;26.62;48.81
74466;BME280;62916;50.044;15.938;2023-06-22T03:05:18;99366.52;;;26.61;48.72
74466;BME280;62916;50.044;15.938;2023-06-22T03:07:49;99370.80;;;26.60;48.58
74466;BME280;62916;50.044;15.938;2023-06-22T03:10:20;99372.15;;;26.59;48.61
74466;BME280;62916;50.044;15.938;2023-06-22T03:12:51;99375.63;;;26.57;48.57
74466;BME280;62916;50.044;15.938;2023-06-22T03:15:22;99373.67;;;26.54;48.37
74466;BME280;62916;50.044;15.938;2023-06-22T03:17:53;99376.44;;;26.52;48.59
74466;BME280;62916;50.044;15.938;2023-06-22T03:20:24;99376.84;;;26.49;48.36
74466;BME280;62916;50.044;15.938;2023-06-22T03:22:57;99375.90;;;26.47;48.58
74466;BME280;62916;50.044;15.938;2023-06-22T03:25:27;99380.73;;;26.49;48.66
74466;BME280;62916;50.044;15.938;2023-06-22T03:27:58;99376.92;;;26.51;48.70
74466;BME280;62916;50.044;15.938;2023-06-22T03:30:30;99372.92;;;26.55;48.94
74466;BME280;62916;50.044;15.938;2023-06-22T03:33:01;99372.02;;;26.60;48.88
74466;BME280;62916;50.044;15.938;2023-06-22T03:35:32;99373.75;;;26.63;48.88
74466;BME280;62916;50.044;15.938;2023-06-22T03:38:03;99378.86;;;26.68;48.87
74466;BME280;62916;50.044;15.938;2023-06-22T03:40:33;99378.60;;;26.72;49.03
74466;BME280;62916;50.044;15.938;2023-06-22T03:43:04;99386.66;;;26.80;49.07
74466;BME280;62916;50.044;15.938;2023-06-22T03:45:35;99382.67;;;26.87;49.14
74466;BME280;62916;50.044;15.938;2023-06-22T03:48:06;99380.05;;;26.90;49.20
74466;BME280;62916;50.044;15.938;2023-06-22T03:50:37;99384.86;;;26.96;49.09
74466;BME280;62916;50.044;15.938;2023-06-22T03:53:08;99380.73;;;27.01;49.21
74466;BME280;62916;50.044;15.938;2023-06-22T03:55:47;99384.86;;;27.06;49.17
74466;BME280;62916;50.044;15.938;2023-06-22T03:58:20;99388.40;;;27.10;49.28
74466;BME280;62916;50.044;15.938;2023-06-22T04:00:52;99385.69;;;27.17;49.43
74466;BME280;62916;50.044;15.938;2023-06-22T04:03:23;99380.88;;;27.22;49.19
74466;BME280;62916;50.044;15.938;2023-06-22T04:05:54;99378.20;;;27.27;49.35
74466;BME280;62916;50.044;15.938;2023-06-22T04:08:25;99378.17;;;27.31;49.54
74466;BME280;62916;50.044;15.938;2023-06-22T04:10:56;99378.55;;;27.36;49.52
74466;BME280;62916;50.044;15.938;2023-06-22T04:13:27;99381.11;;;27.40;49.24
74466;BME280;62916;50.044;15.938;2023-06-22T04:15:58;99382.23;;;27.44;49.47
74466;BME280;62916;50.044;15.938;2023-06-22T04:18:30;99384.39;;;27.48;49.44
74466;BME280;62916;50.044;15.938;2023-06-22T04:21:01;99383.13;;;27.52;49.29
74466;BME280;62916;50.044;15.938;2023-06-22T04:23:32;99378.66;;;27.57;49.26
74466;BME280;62916;50.044;15.938;2023-06-22T04:26:03;99385.70;;;27.62;49.45
74466;BME280;62916;50.044;15.938;2023-06-22T04:28:34;99378.17;;;27.65;49.58
74466;BME280;62916;50.044;15.938;2023-06-22T04:31:05;99378.08;;;27.67;49.42
74466;BME280;62916;50.044;15.938;2023-06-22T04:33:36;99381.05;;;27.70;49.46
74466;BME280;62916;50.044;15.938;2023-06-22T04:36:10;99380.59;;;27.73;49.48
74466;BME280;62916;50.044;15.938;2023-06-22T04:38:42;99378.56;;;27.75;49.48
74466;BME280;62916;50.044;15.938;2023-06-22T04:41:13;99379.88;;;27.79;49.47
74466;BME280;62916;50.044;15.938;2023-06-22T04:43:53;99378.52;;;27.83;49.48
74466;BME280;62916;50.044;15.938;2023-06-22T04:46:29;99376.52;;;27.87;49.31
74466;BME280;62916;50.044;15.938;2023-06-22T04:49:00;99382.69;;;27.89;49.11
74466;BME280;62916;50.044;15.938;2023-06-22T04:51:35;99385.93;;;27.92;49.17
74466;BME280;62916;50.044;15.938;2023-06-22T04:54:08;99388.73;;;27.93;49.15
74466;BME280;62916;50.044;15.938;2023-06-22T04:56:39;99387.48;;;27.95;49.05
74466;BME280;62916;50.044;15.938;2023-06-22T04:59:10;99387.39;;;27.97;49.04
74466;BME280;62916;50.044;15.938;2023-06-22T05:01:42;99383.27;;;27.98;48.98
74466;BME280;62916;50.044;15.938;2023-06-22T05:04:13;99382.77;;;27.98;48.87
74466;BME280;62916;50.044;15.938;2023-06-22T05:06:44;99385.67;;;28.00;48.93
74466;BME280;62916;50.044;15.938;2023-06-22T05:09:16;99385.53;;;28.00;48.83
74466;BME280;62916;50.044;15.938;2023-06-22T05:11:47;99384.41;;;28.01;48.83
74466;BME280;62916;50.044;15.938;2023-06-22T05:14:18;99379.77;;;28.01;48.75
74466;BME280;62916;50.044;15.938;2023-06-22T05:16:49;99385.28;;;28.03;48.84
74466;BME280;62916;50.044;15.938;2023-06-22T05:19:21;99383.75;;;28.04;48.66
74466;BME280;62916;50.044;15.938;2023-06-22T05:21:52;99384.30;;;28.06;48.79
74466;BME280;62916;50.044;15.938;2023-06-22T05:24:23;99386.70;;;28.07;48.76
74466;BME280;62916;50.044;15.938;2023-06-22T05:26:54;99385.15;;;28.07;48.78
74466;BME280;62916;50.044;15.938;2023-06-22T05:29:24;99383.65;;;28.08;48.62
74466;BME280;62916;50.044;15.938;2023-06-22T05:31:56;99381.21;;;28.09;48.57
74466;BME280;62916;50.044;15.938;2023-06-22T05:34:27;99378.39;;;28.10;48.64
74466;BME280;62916;50.044;15.938;2023-06-22T05:36:58;99375.15;;;28.11;48.71
74466;BME280;62916;50.044;15.938;2023-06-22T05:39:29;99376.70;;;28.11;48.54
74466;BME280;62916;50.044;15.938;2023-06-22T05:42:00;99372.63;;;28.11;48.55
74466;BME280;62916;50.044;15.938;2023-06-22T05:44:31;99370.88;;;28.12;48.57
74466;BME280;62916;50.044;15.938;2023-06-22T05:47:03;99364.51;;;28.12;48.56
74466;BME280;62916;50.044;15.938;2023-06-22T05:49:34;99368.20;;;28.13;48.55
74466;BME280;62916;50.044;15.938;2023-06-22T05:52:06;99376.14;;;28.14;48.41
74466;BME280;62916;50.044;15.938;2023-06-22T05:54:37;99374.45;;;28.12;48.68
74466;BME280;62916;50.044;15.938;2023-06-22T05:57:08;99386.22;;;28.16;48.48
74466;BME280;62916;50.044;15.938;2023-06-22T05:59:39;99387.39;;;28.16;48.35
74466;BME280;62916;50.044;15.938;2023-06-22T06:02:10;99387.92;;;28.17;48.49
74466;BME280;62916;50.044;15.938;2023-06-22T06:04:41;99386.72;;;28.18;48.39
74466;BME280;62916;50.044;15.938;2023-06-22T06:07:12;99389.34;;;28.19;48.38
74466;BME280;62916;50.044;15.938;2023-06-22T06:09:42;99393.42;;;28.19;48.22
74466;BME280;62916;50.044;15.938;2023-06-22T06:12:13;99393.45;;;28.20;48.35
74466;BME280;62916;50.044;15.938;2023-06-22T06:14:44;99388.41;;;28.21;48.46
74466;BME280;62916;50.044;15.938;2023-06-22T06:17:15;99388.71;;;28.20;48.33
74466;BME280;62916;50.044;15.938;2023-06-22T06:19:45;99395.21;;;28.22;48.23
74466;BME280;62916;50.044;15.938;2023-06-22T06:22:16;99400.13;;;28.23;48.37
74466;BME280;62916;50.044;15.938;2023-06-22T06:24:48;99403.97;;;28.24;48.47
74466;BME280;62916;50.044;15.938;2023-06-22T06:27:19;99407.48;;;28.24;48.33
74466;BME280;62916;50.044;15.938;2023-06-22T06:29:50;99410.50;;;28.24;48.35
74466;BME280;62916;50.044;15.938;2023-06-22T06:32:21;99411.02;;;28.25;48.33
74466;BME280;62916;50.044;15.938;2023-06-22T06:34:52;99408.60;;;28.26;48.36
74466;BME280;62916;50.044;15.938;2023-06-22T06:37:23;99412.23;;;28.27;48.29
74466;BME280;62916;50.044;15.938;2023-06-22T06:39:54;99411.14;;;28.29;48.47
74466;BME280;62916;50.044;15.938;2023-06-22T06:42:25;99412.36;;;28.30;48.33
74466;BME280;62916;50.044;15.938;2023-06-22T06:44:56;99411.02;;;28.28;48.36
74466;BME280;62916;50.044;15.938;2023-06-22T06:47:26;99414.76;;;28.31;48.20
74466;BME280;62916;50.044;15.938;2023-06-22T06:49:57;99419.44;;;28.32;48.21
74466;BME280;62916;50.044;15.938;2023-06-22T06:52:29;99426.04;;;28.32;48.20
74466;BME280;62916;50.044;15.938;2023-06-22T06:55:00;99428.25;;;28.33;48.15
74466;BME280;62916;50.044;15.938;2023-06-22T06:57:30;99428.45;;;28.33;48.24
74466;BME280;62916;50.044;15.938;2023-06-22T07:00:02;99427.14;;;28.33;48.25
74466;BME280;62916;50.044;15.938;2023-06-22T07:02:44;99431.63;;;28.34;48.25
74466;BME280;62916;50.044;15.938;2023-06-22T07:05:18;99434.02;;;28.35;48.22
74466;BME280;62916;50.044;15.938;2023-06-22T07:07:49;99428.34;;;28.35;48.29
74466;BME280;62916;50.044;15.938;2023-06-22T07:10:19;99422.02;;;28.36;48.10
74466;BME280;62916;50.044;15.938;2023-06-22T07:12:50;99415.27;;;28.37;48.12
74466;BME280;62916;50.044;15.938;2023-06-22T07:15:21;99410.20;;;28.36;48.20
74466;BME280;62916;50.044;15.938;2023-06-22T07:17:52;99415.21;;;28.38;48.08
74466;BME280;62916;50.044;15.938;2023-06-22T07:20:24;99415.46;;;28.38;48.16
74466;BME280;62916;50.044;15.938;2023-06-22T07:22:55;99419.23;;;28.39;48.10
74466;BME280;62916;50.044;15.938;2023-06-22T07:25:25;99415.60;;;28.41;48.16
74466;BME280;62916;50.044;15.938;2023-06-22T07:28:02;99413.18;;;28.41;48.10
74466;BME280;62916;50.044;15.938;2023-06-22T07:30:34;99419.95;;;28.45;48.15
74466;BME280;62916;50.044;15.938;2023-06-22T07:33:05;99419.91;;;28.46;48.12
74466;BME280;62916;50.044;15.938;2023-06-22T07:35:38;99422.90;;;28.45;48.05
74466;BME280;62916;50.044;15.938;2023-06-22T07:38:09;99428.35;;;28.47;48.01
74466;BME280;62916;50.044;15.938;2023-06-22T07:40:40;99417.27;;;28.47;47.94
74466;BME280;62916;50.044;15.938;2023-06-22T07:43:12;99410.97;;;28.46;47.98
74466;BME280;62916;50.044;15.938;2023-06-22T07:45:49;99411.34;;;28.48;47.97
74466;BME280;62916;50.044;15.938;2023-06-22T07:48:23;99412.40;;;28.49;48.02
74466;BME280;62916;50.044;15.938;2023-06-22T07:50:53;99410.06;;;28.49;47.97
74466;BME280;62916;50.044;15.938;2023-06-22T07:53:25;99403.86;;;28.50;47.96
74466;BME280;62916;50.044;15.938;2023-06-22T07:55:55;99397.85;;;28.51;47.90
74466;BME280;62916;50.044;15.938;2023-06-22T07:58:26;99398.13;;;28.52;47.88
74466;BME280;62916;50.044;15.938;2023-06-22T08:00:57;99395.38;;;28.53;47.96
74466;BME280;62916;50.044;15.938;2023-06-22T08:03:28;99390.98;;;28.53;47.90
74466;BME280;62916;50.044;15.938;2023-06-22T08:05:59;99392.56;;;28.54;47.94
74466;BME280;62916;50.044;15.938;2023-06-22T08:08:30;99394.98;;;28.56;47.97
74466;BME280;62916;50.044;15.938;2023-06-22T08:11:01;99397.55;;;28.58;47.84
74466;BME280;62916;50.044;15.938;2023-06-22T08:13:32;99397.08;;;28.58;47.75
74466;BME280;62916;50.044;15.938;2023-06-22T08:16:04;99392.60;;;28.58;47.83
74466;BME280;62916;50.044;15.938;2023-06-22T08:18:36;99391.23;;;28.59;47.81
74466;BME280;62916;50.044;15.938;2023-06-22T08:21:07;99383.48;;;28.59;47.83
74466;BME280;62916;50.044;15.938;2023-06-22T08:23:38;99380.22;;;28.59;47.79
74466;BME280;62916;50.044;15.938;2023-06-22T08:26:09;99372.90;;;28.56;47.81
74466;BME280;62916;50.044;15.938;2023-06-22T08:28:40;99372.88;;;28.59;47.84
74466;BME280;62916;50.044;15.938;2023-06-22T08:31:11;99371.59;;;28.59;47.77
74466;BME280;62916;50.044;15.938;2023-06-22T08:33:42;99368.98;;;28.59;47.76
74466;BME280;62916;50.044;15.938;2023-06-22T08:36:18;99364.41;;;28.59;47.75
74466;BME280;62916;50.044;15.938;2023-06-22T08:38:49;99362.05;;;28.60;47.73
74466;BME280;62916;50.044;15.938;2023-06-22T08:41:20;99362.30;;;28.60;47.81
74466;BME280;62916;50.044;15.938;2023-06-22T08:43:51;99363.22;;;28.61;47.88
74466;BME280;62916;50.044;15.938;2023-06-22T08:46:22;99364.77;;;28.62;47.79
74466;BME280;62916;50.044;15.938;2023-06-22T08:49:00;99361.23;;;28.63;47.84
74466;BME280;62916;50.044;15.938;2023-06-22T08:51:31;99357.45;;;28.62;47.87
74466;BME280;62916;50.044;15.938;2023-06-22T08:54:02;99350.45;;;28.63;47.77
74466;BME280;62916;50.044;15.938;2023-06-22T08:56:32;99353.95;;;28.62;47.68
74466;BME280;62916;50.044;15.938;2023-06-22T08:59:03;99352.94;;;28.64;47.77
74466;BME280;62916;50.044;15.938;2023-06-22T09:01:35;99351.73;;;28.64;47.66
74466;BME280;62916;50.044;15.938;2023-06-22T09:04:06;99348.69;;;28.64;47.73
74466;BME280;62916;50.044;15.938;2023-06-22T09:06:38;99342.27;;;28.64;47.63
74466;BME280;62916;50.044;15.938;2023-06-22T09:09:15;99340.98;;;28.61;47.81
74466;BME280;62916;50.044;15.938;2023-06-22T09:11:47;99342.70;;;28.65;47.71
74466;BME280;62916;50.044;15.938;2023-06-22T09:14:18;99334.48;;;28.66;47.88
74466;BME280;62916;50.044;15.938;2023-06-22T09:16:48;99331.56;;;28.67;47.67
74466;BME280;62916;50.044;15.938;2023-06-22T09:19:19;99324.21;;;28.66;47.66
74466;BME280;62916;50.044;15.938;2023-06-22T09:21:50;99328.48;;;28.67;47.70
74466;BME280;62916;50.044;15.938;2023-06-22T09:24:21;99333.38;;;28.67;47.70
74466;BME280;62916;50.044;15.938;2023-06-22T09:26:52;99326.20;;;28.67;47.64
74466;BME280;62916;50.044;15.938;2023-06-22T09:29:23;99326.42;;;28.67;47.76
74466;BME280;62916;50.044;15.938;2023-06-22T09:31:53;99313.38;;;28.66;47.72
74466;BME280;62916;50.044;15.938;2023-06-22T09:34:25;99309.73;;;28.67;47.70
74466;BME280;62916;50.044;15.938;2023-06-22T09:36:56;99303.73;;;28.68;47.69
74466;BME280;62916;50.044;15.938;2023-06-22T09:39:30;99294.61;;;28.69;47.59
74466;BME280;62916;50.044;15.938;2023-06-22T09:42:01;99295.59;;;28.69;47.65
74466;BME280;62916;50.044;15.938;2023-06-22T09:44:32;99293.73;;;28.70;47.67
74466;BME280;62916;50.044;15.938;2023-06-22T09:47:03;99291.05;;;28.71;47.67
74466;BME280;62916;50.044;15.938;2023-06-22T09:49:34;99289.45;;;28.68;47.66
74466;BME280;62916;50.044;15.938;2023-06-22T09:52:09;99285.57;;;28.70;47.54
74466;BME280;62916;50.044;15.938;2023-06-22T09:54:40;99286.04;;;28.68;47.69
74466;BME280;62916;50.044;15.938;2023-06-22T09:57:11;99290.59;;;28.72;47.70
74466;BME280;62916;50.044;15.938;2023-06-22T09:59:42;99288.33;;;28.73;47.78
74466;BME280;62916;50.044;15.938;2023-06-22T10:02:13;99288.29;;;28.75;47.68
74466;BME280;62916;50.044;15.938;2023-06-22T10:04:44;99284.00;;;28.76;47.67
74466;BME280;62916;50.044;15.938;2023-06-22T10:07:15;99277.50;;;28.76;47.66
74466;BME280;62916;50.044;15.938;2023-06-22T10:09:46;99277.80;;;28.76;47.56
74466;BME280;62916;50.044;15.938;2023-06-22T10:12:17;99273.59;;;28.73;47.60
74466;BME280;62916;50.044;15.938;2023-06-22T10:14:48;99282.33;;;28.77;47.65
74466;BME280;62916;50.044;15.938;2023-06-22T10:17:19;99280.64;;;28.77;47.71
74466;BME280;62916;50.044;15.938;2023-06-22T10:19:50;99279.42;;;28.78;47.65
74466;BME280;62916;50.044;15.938;2023-06-22T10:22:21;99279.14;;;28.79;47.62
74466;BME280;62916;50.044;15.938;2023-06-22T10:24:52;99276.99;;;28.78;47.54
74466;BME280;62916;50.044;15.938;2023-06-22T10:27:22;99273.83;;;28.79;47.63
74466;BME280;62916;50.044;15.938;2023-06-22T10:29:53;99272.59;;;28.78;47.61
74466;BME280;62916;50.044;15.938;2023-06-22T10:32:24;99272.30;;;28.80;47.62
74466;BME280;62916;50.044;15.938;2023-06-22T10:34:55;99268.98;;;28.81;47.61
74466;BME280;62916;50.044;15.938;2023-06-22T10:37:28;99266.44;;;28.80;47.63
74466;BME280;62916;50.044;15.938;2023-06-22T10:39:59;99262.77;;;28.80;47.52
74466;BME280;62916;50.044;15.938;2023-06-22T10:42:30;99256.73;;;28.81;47.58
74466;BME280;62916;50.044;15.938;2023-06-22T10:45:00;99256.83;;;28.81;47.54
74466;BME280;62916;50.044;15.938;2023-06-22T10:47:32;99262.86;;;28.81;47.64
74466;BME280;62916;50.044;15.938;2023-06-22T10:50:04;99260.25;;;28.81;47.67
74466;BME280;62916;50.044;15.938;2023-06-22T10:52:35;99263.23;;;28.83;47.66
74466;BME280;62916;50.044;15.938;2023-06-22T10:55:07;99264.15;;;28.84;47.58
74466;BME280;62916;50.044;15.938;2023-06-22T10:57:39;99259.59;;;28.84;47.52
74466;BME280;62916;50.044;15.938;2023-06-22T11:00:15;99263.61;;;28.85;47.59
74466;BME280;62916;50.044;15.938;2023-06-22T11:02:46;99260.78;;;28.86;47.55
74466;BME280;62916;50.044;15.938;2023-06-22T11:05:17;99252.66;;;28.87;47.59
74466;BME280;62916;50.044;15.938;2023-06-22T11:07:48;99248.86;;;28.89;47.57
74466;BME280;62916;50.044;15.938;2023-06-22T11:10:20;99247.02;;;28.90;47.61
74466;BME280;62916;50.044;15.938;2023-06-22T11:12:50;99236.24;;;28.90;47.56
74466;BME280;62916;50.044;15.938;2023-06-22T11:15:22;99236.98;;;28.91;47.47
74466;BME280;62916;50.044;15.938;2023-06-22T11:17:53;99233.16;;;28.91;47.50
74466;BME280;62916;50.044;15.938;2023-06-22T11:20:24;99229.74;;;28.92;47.30
74466;BME280;62916;50.044;15.938;2023-06-22T11:22:55;99225.27;;;28.93;47.42
74466;BME280;62916;50.044;15.938;2023-06-22T11:25:26;99222.36;;;28.94;47.43
74466;BME280;62916;50.044;15.938;2023-06-22T11:27:58;99221.31;;;28.94;47.51
74466;BME280;62916;50.044;15.938;2023-06-22T11:30:29;99223.42;;;28.94;47.38
74466;BME280;62916;50.044;15.938;2023-06-22T11:33:01;99221.23;;;28.95;47.43
74466;BME280;62916;50.044;15.938;2023-06-22T11:35:32;99219.69;;;28.95;47.39
74466;BME280;62916;50.044;15.938;2023-06-22T11:38:03;99224.52;;;28.95;47.47
74466;BME280;62916;50.044;15.938;2023-06-22T11:40:34;99218.79;;;28.94;47.49
74466;BME280;62916;50.044;15.938;2023-06-22T11:43:05;99218.39;;;28.95;47.52
74466;BME280;62916;50.044;15.938;2023-06-22T11:45:36;99217.09;;;28.95;47.38
74466;BME280;62916;50.044;15.938;2023-06-22T11:48:07;99216.59;;;28.95;47.51
74466;BME280;62916;50.044;15.938;2023-06-22T11:50:38;99216.83;;;28.95;47.43
74466;BME280;62916;50.044;15.938;2023-06-22T11:53:09;99209.24;;;28.94;47.40
74466;BME280;62916;50.044;15.938;2023-06-22T11:55:40;99208.92;;;28.95;47.44
74466;BME280;62916;50.044;15.938;2023-06-22T11:58:11;99207.43;;;28.94;47.38
74466;BME280;62916;50.044;15.938;2023-06-22T12:00:43;99208.02;;;28.95;47.41
74466;BME280;62916;50.044;15.938;2023-06-22T12:03:20;99210.64;;;28.95;47.48
74466;BME280;62916;50.044;15.938;2023-06-22T12:05:52;99205.92;;;28.96;47.51
74466;BME280;62916;50.044;15.938;2023-06-22T12:08:23;99204.32;;;28.97;47.50
74466;BME280;62916;50.044;15.938;2023-06-22T12:10:55;99198.45;;;28.97;47.42
74466;BME280;62916;50.044;15.938;2023-06-22T12:13:25;99193.82;;;28.98;47.42
74466;BME280;62916;50.044;15.938;2023-06-22T12:15:56;99191.95;;;28.98;47.47
74466;BME280;62916;50.044;15.938;2023-06-22T12:18:28;99190.05;;;28.98;47.48
74466;BME280;62916;50.044;15.938;2023-06-22T12:20:58;99188.51;;;28.98;47.34
74466;BME280;62916;50.044;15.938;2023-06-22T12:23:30;99188.52;;;28.98;47.42
74466;BME280;62916;50.044;15.938;2023-06-22T12:26:01;99184.38;;;28.99;47.48
74466;BME280;62916;50.044;15.938;2023-06-22T12:28:32;99187.64;;;28.99;47.48
74466;BME280;62916;50.044;15.938;2023-06-22T12:31:03;99186.81;;;28.98;47.41
74466;BME280;62916;50.044;15.938;2023-06-22T12:33:34;99186.20;;;29.00;47.41
74466;BME280;62916;50.044;15.938;2023-06-22T12:36:06;99183.34;;;29.00;47.41
74466;BME280;62916;50.044;15.938;2023-06-22T12:38:37;99174.54;;;29.00;47.42
74466;BME280;62916;50.044;15.938;2023-06-22T12:41:08;99171.11;;;29.00;47.55
74466;BME280;62916;50.044;15.938;2023-06-22T12:43:40;99172.40;;;29.00;47.49
74466;BME280;62916;50.044;15.938;2023-06-22T12:46:12;99168.94;;;28.98;47.41
74466;BME280;62916;50.044;15.938;2023-06-22T12:48:43;99170.46;;;29.00;47.51
74466;BME280;62916;50.044;15.938;2023-06-22T12:51:21;99167.20;;;29.00;47.50
74466;BME280;62916;50.044;15.938;2023-06-22T12:53:53;99157.40;;;29.01;47.47
74466;BME280;62916;50.044;15.938;2023-06-22T12:56:23;99153.34;;;29.02;47.54
74466;BME280;62916;50.044;15.938;2023-06-22T12:58:54;99151.98;;;29.03;47.52
74466;BME280;62916;50.044;15.938;2023-06-22T13:01:26;99149.91;;;29.05;47.55
74466;BME280;62916;50.044;15.938;2023-06-22T13:03:58;99146.98;;;29.06;47.42
74466;BME280;62916;50.044;15.938;2023-06-22T13:06:29;99146.27;;;29.07;47.46
74466;BME280;62916;50.044;15.938;2023-06-22T13:08:59;99152.39;;;29.06;47.42
74466;BME280;62916;50.044;15.938;2023-06-22T13:11:34;99150.36;;;29.07;47.41
74466;BME280;62916;50.044;15.938;2023-06-22T13:14:04;99146.03;;;29.07;47.37